Poplar Bluff, MO

10:13 PM CST on December 18, 2014 (GMT -0600)
Poplar Bluff Municipal | Change Station
CLOSE
Current Station
Airport
Location: Poplar Bluff,
Elevation: 328 ft
Nearby Weather Stations

Elev 328 ft 36.77 °N, 90.32 °W | Updated 20 minutes ago

Overcast
Overcast
37 °F
Feels Like 32 °F
N
7
Wind Variable Wind from NE

Today
High -- | Low -- °F
--% Chance of Precip.
Yesterday
High -- | Low -- °F
Precip. -- in
7:08 AM 4:47 PM
Waning Crescent, 10% visible
Pressure 30.28 in
Visibility 7.0 miles
Clouds Overcast 4600 ft
Windchill 32 °F
Dew Point 32 °F
Humidity 82%
Rainfall 0.10 in
Snow Depth Not available.
UV 0 out of 12
Pollen .50 out of 12
Air Quality Not available.
Flu Activity Not available.
METAR KPOF 190353Z AUTO 04006KT 7SM OVC046 03/00 A3026 RMK AO2 SLP252 T00280000

More Conditions Fewer Conditions

Pressure 30.28 in
Visibility 7.0 miles
Clouds Overcast 4600 ft
Windchill 32 °F
Dew Point 32 °F
Humidity 82%
Rainfall 0.10 in
Snow Depth Not available.
UV 0 out of 12
Pollen .50 out of 12
Air Quality Not available.
Flu Activity Not available.
METAR KPOF 190353Z AUTO 04006KT 7SM OVC046 03/00 A3026 RMK AO2 SLP252 T00280000

More Conditions Fewer Conditions

10-Day Weather Forecast

Almanac

Astronomy

Dec. 18, 2014 Rise Set
Actual Time
Civil Twilight
Nautical Twilight
Astronomical Twilight
Moon
Length of Visible Light
Length of Day
Tomorrow will be .
, % of the Moon is Illuminated

Today's Extremes

State Highs State Lows

Community

WunderPhotos

Upload Photos

1,778,975 photos uploaded!

WunderBlogs® & News

Nearby

Air Quality

  Air Quality AQ Index Pollutant
Not available.

Snow Depth

Station Depth Elevation

Earthquake Activity

City Distance Mag. Time & Date
Minimum magnitude displayed is 2.5.

Coastal Water Temperatures

Place Temperature

Nearby Weather Stations